| time (UTC) | temp F | wind direction | speed MPH | gust MPH | rain 1hr in | rain 24hr in | rain mn in | humidity % | barometer mb |
| 20260507014126 | 80 | 213 | 3.0 | 5.0 | 0.00 | 0.00 | 0.00 | 34 | 1119.9 |
| 20260507013623 | 80 | 232 | 3.0 | 5.0 | 0.00 | 0.00 | 0.00 | 33 | 1119.7 |
| 20260507013120 | 80 | 193 | 2.0 | 5.0 | 0.00 | 0.00 | 0.00 | 33 | 1119.7 |
| 20260507012617 | 81 | 218 | 2.0 | 6.0 | 0.00 | 0.00 | 0.00 | 33 | 1119.8 |
| 20260507012113 | 81 | 192 | 1.0 | 5.0 | 0.00 | 0.00 | 0.00 | 33 | 1119.7 |
| 20260507011611 | 81 | 222 | 3.0 | 5.0 | 0.00 | 0.00 | 0.00 | 33 | 1119.6 |
| 20260507011107 | 81 | 236 | 3.0 | 5.0 | 0.00 | 0.00 | 0.00 | 33 | 1119.4 |
| 20260507010602 | 82 | 218 | 4.0 | 7.0 | 0.00 | 0.00 | 0.00 | 32 | 1119.3 |
| 20260507010059 | 82 | 247 | 2.0 | 7.0 | 0.00 | 0.00 | 0.00 | 32 | 1119.3 |
| 20260507005556 | 82 | 192 | 4.0 | 7.0 | 0.00 | 0.00 | 0.00 | 32 | 1119.2 |
| 20260507005052 | 82 | 243 | 3.0 | 9.0 | 0.00 | 0.00 | 0.00 | 32 | 1119.5 |
| 20260507004549 | 82 | 218 | 6.0 | 7.0 | 0.00 | 0.00 | 0.00 | 32 | 1119.2 |
| 20260507004046 | 82 | 239 | 5.0 | 8.0 | 0.00 | 0.00 | 0.00 | 32 | 1119.2 |
| 20260507003542 | 83 | 181 | 3.0 | 10.0 | 0.00 | 0.00 | 0.00 | 32 | 1119.1 |
| 20260507003037 | 83 | 295 | 3.0 | 7.0 | 0.00 | 0.00 | 0.00 | 31 | 1119.2 |
| 20260507002535 | 84 | 292 | 2.0 | 8.0 | 0.00 | 0.00 | 0.00 | 30 | 1119.1 |
| 20260507002031 | 84 | 231 | 2.0 | 5.0 | 0.00 | 0.00 | 0.00 | 30 | 1119.1 |
| 20260507001527 | 84 | 275 | 2.0 | 8.0 | 0.00 | 0.00 | 0.00 | 30 | 1119.0 |
| 20260507001025 | 84 | 209 | 5.0 | 11.0 | 0.00 | 0.00 | 0.00 | 30 | 1119.0 |
| 20260507000520 | 84 | 196 | 6.0 | 11.0 | 0.00 | 0.00 | 0.00 | 30 | 1119.1 |
| 20260507000016 | 85 | 194 | 5.0 | 13.0 | 0.00 | 0.00 | 0.00 | 30 | 1118.9 |
| 20260506235514 | 85 | 254 | 5.0 | 8.0 | 0.00 | 0.00 | 0.00 | 30 | 1118.7 |
| 20260506235009 | 86 | 206 | 3.0 | 8.0 | 0.00 | 0.00 | 0.00 | 29 | 1118.9 |
| 20260506234507 | 86 | 205 | 5.0 | 7.0 | 0.00 | 0.00 | 0.00 | 29 | 1118.7 |
| 20260506234004 | 86 | 213 | 7.0 | 9.0 | 0.00 | 0.00 | 0.00 | 29 | 1118.9 |
| 20260506233500 | 87 | 190 | 4.0 | 9.0 | 0.00 | 0.00 | 0.00 | 29 | 1118.9 |
| 20260506232957 | 87 | 236 | 4.0 | 8.0 | 0.00 | 0.00 | 0.00 | 29 | 1118.4 |
| 20260506232454 | 87 | 234 | 4.0 | 10.0 | 0.00 | 0.00 | 0.00 | 28 | 1118.3 |
| 20260506231949 | 87 | 316 | 5.0 | 7.0 | 0.00 | 0.00 | 0.00 | 28 | 1118.3 |
| 20260506231447 | 87 | 234 | 4.0 | 7.0 | 0.00 | 0.00 | 0.00 | 29 | 1118.5 |
| 20260506230944 | 87 | 238 | 2.0 | 7.0 | 0.00 | 0.00 | 0.00 | 29 | 1118.4 |
| 20260506230440 | 87 | 292 | 4.0 | 9.0 | 0.00 | 0.00 | 0.00 | 29 | 1118.5 |
| 20260506225937 | 88 | 171 | 2.0 | 6.0 | 0.00 | 0.00 | 0.00 | 29 | 1118.5 |
| 20260506225434 | 87 | 238 | 6.0 | 10.0 | 0.00 | 0.00 | 0.00 | 29 | 1118.3 |
| 20260506224931 | 89 | 266 | 4.0 | 8.0 | 0.00 | 0.00 | 0.00 | 28 | 1118.4 |
| 20260506224428 | 88 | 215 | 3.0 | 7.0 | 0.00 | 0.00 | 0.00 | 28 | 1118.4 |
| 20260506223925 | 89 | 231 | 5.0 | 7.0 | 0.00 | 0.00 | 0.00 | 29 | 1118.6 |
| 20260506223420 | 89 | 277 | 4.0 | 8.0 | 0.00 | 0.00 | 0.00 | 29 | 1118.5 |
| 20260506222918 | 89 | 248 | 2.0 | 6.0 | 0.00 | 0.00 | 0.00 | 28 | 1118.7 |
| 20260506222414 | 89 | 178 | 3.0 | 10.0 | 0.00 | 0.00 | 0.00 | 29 | 1118.6 |
| 20260506221911 | 89 | 231 | 3.0 | 6.0 | 0.00 | 0.00 | 0.00 | 29 | 1118.7 |
| 20260506221408 | 89 | 255 | 3.0 | 8.0 | 0.00 | 0.00 | 0.00 | 29 | 1118.6 |
| 20260506220906 | 89 | 250 | 7.0 | 10.0 | 0.00 | 0.00 | 0.00 | 29 | 1118.7 |
| 20260506220401 | 91 | 267 | 5.0 | 13.0 | 0.00 | 0.00 | 0.00 | 29 | 1118.9 |
| 20260506215853 | 89 | 263 | 3.0 | 7.0 | 0.00 | 0.00 | 0.00 | 29 | 1118.7 |
| 20260506215348 | 89 | 244 | 6.0 | 9.0 | 0.00 | 0.00 | 0.00 | 30 | 1119.0 |
| 20260506214845 | 89 | 260 | 3.0 | 8.0 | 0.00 | 0.00 | 0.00 | 30 | 1118.9 |
| 20260506214342 | 89 | 251 | 5.0 | 8.0 | 0.00 | 0.00 | 0.00 | 30 | 1119.0 |
| 20260506213840 | 88 | 132 | 4.0 | 7.0 | 0.00 | 0.00 | 0.00 | 31 | 1119.0 |
| 20260506213337 | 89 | 353 | 5.0 | 7.0 | 0.00 | 0.00 | 0.00 | 31 | 1119.1 |
| 20260506212833 | 90 | 232 | 2.0 | 5.0 | 0.00 | 0.00 | 0.00 | 30 | 1119.1 |
| 20260506212329 | 88 | 220 | 4.0 | 6.0 | 0.00 | 0.00 | 0.00 | 32 | 1119.1 |
| 20260506211819 | 90 | 277 | 4.0 | 7.0 | 0.00 | 0.00 | 0.00 | 30 | 1119.1 |
| 20260506211315 | 90 | 271 | 3.0 | 9.0 | 0.00 | 0.00 | 0.00 | 30 | 1119.2 |
| 20260506210812 | 89 | 275 | 2.0 | 6.0 | 0.00 | 0.00 | 0.00 | 31 | 1119.1 |
| 20260506210309 | 90 | 238 | 4.0 | 9.0 | 0.00 | 0.00 | 0.00 | 31 | 1119.1 |
| 20260506205807 | 90 | 264 | 4.0 | 5.0 | 0.00 | 0.00 | 0.00 | 31 | 1119.1 |
| 20260506205305 | 90 | 226 | 3.0 | 7.0 | 0.00 | 0.00 | 0.00 | 31 | 1119.3 |
| 20260506204758 | 89 | 271 | 6.0 | 8.0 | 0.00 | 0.00 | 0.00 | 31 | 1119.3 |
| 20260506204257 | 88 | 187 | 3.0 | 8.0 | 0.00 | 0.00 | 0.00 | 33 | 1119.4 |
| 20260506203754 | 88 | 287 | 1.0 | 9.0 | 0.00 | 0.00 | 0.00 | 33 | 1119.7 |
| 20260506203251 | 89 | 230 | 5.0 | 10.0 | 0.00 | 0.00 | 0.00 | 32 | 1119.5 |
| 20260506202748 | 89 | 234 | 3.0 | 5.0 | 0.00 | 0.00 | 0.00 | 32 | 1119.7 |
| 20260506202244 | 88 | 255 | 2.0 | 6.0 | 0.00 | 0.00 | 0.00 | 33 | 1119.8 |
| 20260506201741 | 89 | 86 | 2.0 | 6.0 | 0.00 | 0.00 | 0.00 | 33 | 1119.8 |
| 20260506201238 | 88 | 211 | 1.0 | 5.0 | 0.00 | 0.00 | 0.00 | 34 | 1119.8 |
| 20260506200735 | 88 | 259 | 5.0 | 7.0 | 0.00 | 0.00 | 0.00 | 34 | 1120.1 |
| 20260506200231 | 89 | 255 | 4.0 | 6.0 | 0.00 | 0.00 | 0.00 | 34 | 1120.1 |
| 20260506195728 | 89 | 248 | 2.0 | 7.0 | 0.00 | 0.00 | 0.00 | 34 | 1120.3 |
| 20260506195224 | 87 | 318 | 3.0 | 5.0 | 0.00 | 0.00 | 0.00 | 35 | 1120.1 |
| 20260506194721 | 86 | 262 | 5.0 | 6.0 | 0.00 | 0.00 | 0.00 | 37 | 1120.1 |
| 20260506194218 | 86 | 221 | 3.0 | 6.0 | 0.00 | 0.00 | 0.00 | 37 | 1120.3 |
| 20260506193716 | 89 | 190 | 5.0 | 7.0 | 0.00 | 0.00 | 0.00 | 35 | 1120.5 |
| 20260506193212 | 88 | 292 | 2.0 | 8.0 | 0.00 | 0.00 | 0.00 | 36 | 1120.7 |
| 20260506192710 | 87 | 229 | 4.0 | 8.0 | 0.00 | 0.00 | 0.00 | 37 | 1120.7 |
| 20260506192206 | 86 | 272 | 3.0 | 6.0 | 0.00 | 0.00 | 0.00 | 37 | 1120.8 |
| 20260506191703 | 86 | 205 | 2.0 | 7.0 | 0.00 | 0.00 | 0.00 | 39 | 1121.0 |
| 20260506191159 | 85 | 188 | 2.0 | 10.0 | 0.00 | 0.00 | 0.00 | 40 | 1121.1 |
| 20260506190656 | 87 | 240 | 3.0 | 3.0 | 0.00 | 0.00 | 0.00 | 37 | 1121.0 |
| 20260506190153 | 86 | 260 | 3.0 | 8.0 | 0.00 | 0.00 | 0.00 | 39 | 1121.2 |
| 20260506185650 | 86 | 272 | 7.0 | 8.0 | 0.00 | 0.00 | 0.00 | 39 | 1121.5 |
| 20260506185146 | 86 | 209 | 2.0 | 5.0 | 0.00 | 0.00 | 0.00 | 39 | 1121.4 |
| 20260506184644 | 87 | 248 | 3.0 | 5.0 | 0.00 | 0.00 | 0.00 | 37 | 1121.6 |
| 20260506184141 | 86 | 211 | 4.0 | 6.0 | 0.00 | 0.00 | 0.00 | 38 | 1121.7 |
| 20260506183637 | 86 | 224 | 1.0 | 3.0 | 0.00 | 0.00 | 0.00 | 37 | 1121.6 |
| 20260506183133 | 85 | 287 | 1.0 | 3.0 | 0.00 | 0.00 | 0.00 | 40 | 1121.6 |
| 20260506182631 | 85 | 314 | 3.0 | 7.0 | 0.00 | 0.00 | 0.00 | 41 | 1121.6 |
| 20260506182128 | 84 | 184 | 3.0 | 8.0 | 0.00 | 0.00 | 0.00 | 43 | 1121.7 |
| 20260506181626 | 87 | 241 | 3.0 | 3.0 | 0.00 | 0.00 | 0.00 | 39 | 1121.8 |
| 20260506181123 | 86 | 246 | 0.0 | 1.0 | 0.00 | 0.00 | 0.00 | 41 | 1121.9 |
| 20260506180619 | 84 | 244 | 0.0 | 2.0 | 0.00 | 0.00 | 0.00 | 44 | 1121.7 |
| 20260506180116 | 85 | 182 | 3.0 | 5.0 | 0.00 | 0.00 | 0.00 | 44 | 1122.0 |
| 20260506175612 | 85 | 196 | 2.0 | 5.0 | 0.00 | 0.00 | 0.00 | 43 | 1121.8 |
| 20260506175108 | 84 | 256 | 2.0 | 8.0 | 0.00 | 0.00 | 0.00 | 44 | 1122.0 |
| 20260506174607 | 84 | 212 | 3.0 | 5.0 | 0.00 | 0.00 | 0.00 | 45 | 1122.1 |
| 20260506174103 | 84 | 265 | 2.0 | 6.0 | 0.00 | 0.00 | 0.00 | 44 | 1122.0 |
| 20260506173601 | 84 | 236 | 0.0 | 2.0 | 0.00 | 0.00 | 0.00 | 45 | 1122.1 |
| 20260506173058 | 84 | 271 | 1.0 | 2.0 | 0.00 | 0.00 | 0.00 | 45 | 1122.5 |
| 20260506172555 | 83 | 167 | 4.0 | 6.0 | 0.00 | 0.00 | 0.00 | 45 | 1122.4 |
| 20260506172051 | 82 | 271 | 2.0 | 5.0 | 0.00 | 0.00 | 0.00 | 46 | 1122.5 |
| 20260506171549 | 81 | 209 | 2.0 | 7.0 | 0.00 | 0.00 | 0.00 | 48 | 1122.5 |
| 20260506171046 | 82 | 213 | 4.0 | 6.0 | 0.00 | 0.00 | 0.00 | 48 | 1122.6 |
| 20260506170543 | 82 | 294 | 3.0 | 6.0 | 0.00 | 0.00 | 0.00 | 47 | 1122.5 |
| 20260506170035 | 82 | 227 | 4.0 | 6.0 | 0.00 | 0.00 | 0.00 | 47 | 1122.7 |
| 20260506165533 | 82 | 262 | 1.0 | 6.0 | 0.00 | 0.00 | 0.00 | 48 | 1122.7 |
| 20260506165029 | 82 | 263 | 3.0 | 3.0 | 0.00 | 0.00 | 0.00 | 47 | 1122.6 |
| 20260506164527 | 81 | 226 | 5.0 | 6.0 | 0.00 | 0.00 | 0.00 | 46 | 1122.8 |
| 20260506164024 | 80 | 149 | 1.0 | 5.0 | 0.00 | 0.00 | 0.00 | 47 | 1122.8 |
| 20260506163520 | 80 | 259 | 1.0 | 3.0 | 0.00 | 0.00 | 0.00 | 48 | 1123.1 |
| 20260506163016 | 80 | 119 | 3.0 | 5.0 | 0.00 | 0.00 | 0.00 | 47 | 1123.2 |
| 20260506162512 | 80 | 258 | 1.0 | 1.0 | 0.00 | 0.00 | 0.00 | 46 | 1122.9 |
| 20260506162009 | 80 | 237 | 2.0 | 5.0 | 0.00 | 0.00 | 0.00 | 46 | 1123.0 |
| 20260506161507 | 80 | 226 | 0.0 | 1.0 | 0.00 | 0.00 | 0.00 | 46 | 1123.0 |
| 20260506161003 | 79 | 264 | 2.0 | 3.0 | 0.00 | 0.00 | 0.00 | 47 | 1123.0 |
| 20260506160501 | 80 | 218 | 1.0 | 3.0 | 0.00 | 0.00 | 0.00 | 45 | 1122.9 |
| 20260506155958 | 80 | 271 | 1.0 | 1.0 | 0.00 | 0.00 | 0.00 | 47 | 1123.1 |
| 20260506155456 | 78 | 215 | 1.0 | 3.0 | 0.00 | 0.00 | 0.00 | 48 | 1123.1 |
| 20260506153622 | 77 | 66 | 1.0 | 2.0 | 0.00 | 0.00 | 0.00 | 52 | 1123.2 |
| 20260506153120 | 76 | 170 | 1.0 | 2.0 | 0.00 | 0.00 | 0.00 | 52 | 1123.0 |
| 20260506152617 | 76 | 263 | 1.0 | 5.0 | 0.00 | 0.00 | 0.00 | 52 | 1123.1 |
| 20260506152115 | 74 | 233 | 0.0 | 1.0 | 0.00 | 0.00 | 0.00 | 53 | 1123.0 |
| 20260506151613 | 74 | 212 | 4.0 | 5.0 | 0.00 | 0.00 | 0.00 | 54 | 1122.9 |
| 20260506151109 | 75 | 183 | 2.0 | 3.0 | 0.00 | 0.00 | 0.00 | 52 | 1123.1 |
| 20260506150606 | 75 | 251 | 1.0 | 3.0 | 0.00 | 0.00 | 0.00 | 54 | 1123.0 |
| 20260506145559 | 77 | 325 | 1.0 | 2.0 | 0.00 | 0.00 | 0.00 | 49 | 1123.1 |
| 20260506145057 | 75 | 292 | 1.0 | 3.0 | 0.00 | 0.00 | 0.00 | 53 | 1122.8 |
| 20260506144554 | 75 | 266 | 0.0 | 1.0 | 0.00 | 0.00 | 0.00 | 51 | 1123.0 |
| 20260506144051 | 74 | 273 | 0.0 | 1.0 | 0.00 | 0.00 | 0.00 | 52 | 1122.8 |
| 20260506143548 | 74 | 320 | 2.0 | 2.0 | 0.00 | 0.00 | 0.00 | 53 | 1123.0 |
| 20260506143047 | 73 | 274 | 1.0 | 1.0 | 0.00 | 0.00 | 0.00 | 51 | 1122.9 |
| 20260506142544 | 72 | 247 | 1.0 | 2.0 | 0.00 | 0.00 | 0.00 | 53 | 1122.9 |
| 20260506142042 | 71 | 257 | 0.0 | 1.0 | 0.00 | 0.00 | 0.00 | 55 | 1123.0 |
| 20260506141539 | 70 | 309 | 1.0 | 3.0 | 0.00 | 0.00 | 0.00 | 56 | 1123.2 |
| 20260506141038 | 70 | 266 | 1.0 | 3.0 | 0.00 | 0.00 | 0.00 | 56 | 1123.0 |
| 20260506140534 | 69 | 327 | 1.0 | 2.0 | 0.00 | 0.00 | 0.00 | 57 | 1123.1 |
| 20260506140032 | 69 | 270 | 1.0 | 2.0 | 0.00 | 0.00 | 0.00 | 56 | 1122.9 |
| 20260506135529 | 69 | 308 | 1.0 | 3.0 | 0.00 | 0.00 | 0.00 | 57 | 1122.8 |
| 20260506135025 | 68 | 353 | 2.0 | 3.0 | 0.00 | 0.00 | 0.00 | 59 | 1123.0 |
| 20260506134521 | 68 | 322 | 1.0 | 3.0 | 0.00 | 0.00 | 0.00 | 60 | 1122.9 |
| 20260506134017 | 67 | 276 | 1.0 | 1.0 | 0.00 | 0.00 | 0.00 | 59 | 1122.9 |
| 20260506133515 | 67 | 281 | 1.0 | 1.0 | 0.00 | 0.00 | 0.00 | 60 | 1123.0 |
| 20260506133012 | 65 | 277 | 1.0 | 1.0 | 0.00 | 0.00 | 0.00 | 62 | 1122.9 |
| 20260506132509 | 64 | 275 | 1.0 | 2.0 | 0.00 | 0.00 | 0.00 | 64 | 1122.8 |
| 20260506132006 | 63 | 261 | 0.0 | 1.0 | 0.00 | 0.00 | 0.00 | 64 | 1122.8 |
| 20260506131503 | 63 | 296 | 1.0 | 1.0 | 0.00 | 0.00 | 0.00 | 65 | 1122.6 |
| 20260506131000 | 62 | 330 | 2.0 | 3.0 | 0.00 | 0.00 | 0.00 | 66 | 1122.7 |
| 20260506130456 | 62 | 346 | 2.0 | 2.0 | 0.00 | 0.00 | 0.00 | 66 | 1122.8 |
| 20260506125954 | 62 | 313 | 0.0 | 2.0 | 0.00 | 0.00 | 0.00 | 67 | 1122.8 |
| 20260506125452 | 62 | 323 | 1.0 | 2.0 | 0.00 | 0.00 | 0.00 | 67 | 1122.9 |
| 20260506124949 | 61 | 301 | 2.0 | 5.0 | 0.00 | 0.00 | 0.00 | 67 | 1122.7 |
| 20260506124447 | 61 | 283 | 1.0 | 1.0 | 0.00 | 0.00 | 0.00 | 68 | 1122.6 |
| 20260506123945 | 60 | 307 | 2.0 | 2.0 | 0.00 | 0.00 | 0.00 | 69 | 1122.8 |
| 20260506123443 | 60 | 339 | 1.0 | 2.0 | 0.00 | 0.00 | 0.00 | 71 | 1122.8 |
| 20260506122940 | 60 | 344 | 1.0 | 2.0 | 0.00 | 0.00 | 0.00 | 72 | 1122.7 |
| 20260506122437 | 59 | 305 | 2.0 | 2.0 | 0.00 | 0.00 | 0.00 | 73 | 1122.5 |
| 20260506121935 | 59 | 267 | 0.0 | 1.0 | 0.00 | 0.00 | 0.00 | 74 | 1122.8 |
| 20260506121432 | 59 | 275 | 1.0 | 2.0 | 0.00 | 0.00 | 0.00 | 74 | 1122.6 |
| 20260506120929 | 59 | 266 | 0.0 | 1.0 | 0.00 | 0.00 | 0.00 | 74 | 1122.5 |
| 20260506120426 | 59 | 273 | 0.0 | 2.0 | 0.00 | 0.00 | 0.00 | 74 | 1122.4 |
| 20260506115923 | 59 | 280 | 1.0 | 2.0 | 0.00 | 0.00 | 0.00 | 73 | 1122.6 |
| 20260506115421 | 59 | 280 | 1.0 | 1.0 | 0.00 | 0.00 | 0.00 | 73 | 1122.1 |
| 20260506114920 | 59 | 277 | 1.0 | 2.0 | 0.00 | 0.00 | 0.00 | 73 | 1122.5 |
| 20260506114417 | 59 | 286 | 1.0 | 2.0 | 0.00 | 0.00 | 0.00 | 72 | 1122.2 |
| 20260506113915 | 59 | 269 | 0.0 | 1.0 | 0.00 | 0.00 | 0.00 | 72 | 1122.2 |
| 20260506113412 | 59 | 277 | 0.0 | 2.0 | 0.00 | 0.00 | 0.00 | 72 | 1122.1 |
| 20260506112909 | 59 | 267 | 0.0 | 1.0 | 0.00 | 0.00 | 0.00 | 71 | 1122.2 |
| 20260506112407 | 59 | 265 | 0.0 | 1.0 | 0.00 | 0.00 | 0.00 | 71 | 1122.0 |
| 20260506111904 | 60 | 272 | 0.0 | 1.0 | 0.00 | 0.00 | 0.00 | 71 | 1122.1 |
| 20260506111402 | 60 | 283 | 0.0 | 1.0 | 0.00 | 0.00 | 0.00 | 71 | 1122.4 |
| 20260506110859 | 60 | 308 | 1.0 | 2.0 | 0.00 | 0.00 | 0.00 | 71 | 1122.1 |
| 20260506110356 | 60 | 273 | 0.0 | 1.0 | 0.00 | 0.00 | 0.00 | 71 | 1122.2 |
| 20260506105853 | 60 | 277 | 0.0 | 1.0 | 0.00 | 0.00 | 0.00 | 71 | 1121.9 |
| 20260506105349 | 60 | 267 | 0.0 | 1.0 | 0.00 | 0.00 | 0.00 | 71 | 1122.1 |
| 20260506104847 | 60 | 270 | 1.0 | 1.0 | 0.00 | 0.00 | 0.00 | 72 | 1122.0 |
| 20260506104344 | 60 | 263 | 0.0 | 1.0 | 0.00 | 0.00 | 0.00 | 72 | 1121.9 |
| 20260506103842 | 60 | 264 | 0.0 | 1.0 | 0.00 | 0.00 | 0.00 | 72 | 1121.8 |
| 20260506103339 | 60 | 264 | 0.0 | 1.0 | 0.00 | 0.00 | 0.00 | 72 | 1121.9 |
| 20260506102836 | 60 | 263 | 0.0 | 1.0 | 0.00 | 0.00 | 0.00 | 72 | 1122.2 |
| 20260506102334 | 60 | 263 | 0.0 | 1.0 | 0.00 | 0.00 | 0.00 | 72 | 1121.6 |
| 20260506101831 | 60 | 269 | 0.0 | 1.0 | 0.00 | 0.00 | 0.00 | 72 | 1121.5 |
| 20260506101327 | 60 | 270 | 1.0 | 1.0 | 0.00 | 0.00 | 0.00 | 72 | 1121.8 |
| 20260506100825 | 60 | 270 | 0.0 | 2.0 | 0.00 | 0.00 | 0.00 | 72 | 1121.8 |
| 20260506100323 | 61 | 261 | 0.0 | 1.0 | 0.00 | 0.00 | 0.00 | 72 | 1121.9 |
| 20260506095822 | 61 | 260 | 0.0 | 1.0 | 0.00 | 0.00 | 0.00 | 72 | 1121.8 |
| 20260506095318 | 61 | 278 | 0.0 | 1.0 | 0.00 | 0.00 | 0.00 | 74 | 1121.6 |
| 20260506094815 | 61 | 277 | 1.0 | 2.0 | 0.00 | 0.00 | 0.00 | 74 | 1121.8 |
| 20260506094314 | 62 | 276 | 1.0 | 2.0 | 0.00 | 0.00 | 0.00 | 73 | 1121.8 |
| 20260506093812 | 62 | 297 | 1.0 | 2.0 | 0.00 | 0.00 | 0.00 | 72 | 1121.8 |
| 20260506093308 | 62 | 271 | 1.0 | 2.0 | 0.00 | 0.00 | 0.00 | 71 | 1121.8 |
| 20260506092806 | 62 | 274 | 1.0 | 2.0 | 0.00 | 0.00 | 0.00 | 71 | 1121.8 |
| 20260506092306 | 62 | 269 | 0.0 | 1.0 | 0.00 | 0.00 | 0.00 | 70 | 1122.0 |
| 20260506091801 | 62 | 258 | 0.0 | 1.0 | 0.00 | 0.00 | 0.00 | 69 | 1121.9 |
| 20260506091258 | 62 | 285 | 1.0 | 1.0 | 0.00 | 0.00 | 0.00 | 69 | 1121.8 |
| 20260506090756 | 62 | 277 | 1.0 | 1.0 | 0.00 | 0.00 | 0.00 | 69 | 1121.7 |
| 20260506090253 | 62 | 269 | 0.0 | 2.0 | 0.00 | 0.00 | 0.00 | 69 | 1121.8 |
| 20260506085749 | 63 | 270 | 0.0 | 2.0 | 0.00 | 0.00 | 0.00 | 68 | 1122.0 |
| 20260506085246 | 63 | 273 | 1.0 | 2.0 | 0.00 | 0.00 | 0.00 | 68 | 1121.8 |
| 20260506084742 | 63 | 270 | 0.0 | 1.0 | 0.00 | 0.00 | 0.00 | 68 | 1121.7 |
| 20260506084239 | 63 | 278 | 1.0 | 2.0 | 0.00 | 0.00 | 0.00 | 67 | 1121.8 |
| 20260506083736 | 63 | 265 | 1.0 | 2.0 | 0.00 | 0.00 | 0.00 | 67 | 1121.7 |
| 20260506083234 | 63 | 269 | 1.0 | 2.0 | 0.00 | 0.00 | 0.00 | 66 | 1122.0 |
| 20260506082731 | 64 | 268 | 1.0 | 2.0 | 0.00 | 0.00 | 0.00 | 65 | 1122.0 |
| 20260506082226 | 64 | 266 | 0.0 | 1.0 | 0.00 | 0.00 | 0.00 | 65 | 1122.2 |
| 20260506081724 | 64 | 282 | 1.0 | 2.0 | 0.00 | 0.00 | 0.00 | 64 | 1122.0 |
| 20260506081221 | 64 | 276 | 1.0 | 2.0 | 0.00 | 0.00 | 0.00 | 64 | 1121.9 |
| 20260506080719 | 65 | 274 | 1.0 | 2.0 | 0.00 | 0.00 | 0.00 | 64 | 1121.9 |
| 20260506080215 | 64 | 264 | 0.0 | 1.0 | 0.00 | 0.00 | 0.00 | 64 | 1122.1 |
| 20260506073159 | 65 | 262 | 1.0 | 1.0 | 0.00 | 0.00 | 0.00 | 64 | 1122.0 |
| 20260506072656 | 65 | 261 | 0.0 | 0.0 | 0.00 | 0.00 | 0.00 | 64 | 1122.2 |
| 20260506072154 | 66 | 267 | 0.0 | 1.0 | 0.00 | 0.00 | 0.00 | 63 | 1122.1 |
| 20260506071651 | 66 | 261 | 0.0 | 1.0 | 0.00 | 0.00 | 0.00 | 63 | 1122.2 |
| 20260506071149 | 66 | 277 | 1.0 | 3.0 | 0.00 | 0.00 | 0.00 | 63 | 1122.5 |
| 20260506070645 | 66 | 264 | 0.0 | 2.0 | 0.00 | 0.00 | 0.00 | 63 | 1122.5 |
| 20260506070143 | 66 | 276 | 3.0 | 3.0 | 0.00 | 0.00 | 0.00 | 63 | 1122.6 |
| 20260506062120 | 66 | 276 | 1.0 | 2.0 | 0.00 | 0.00 | 0.00 | 63 | 1122.6 |
| 20260506061616 | 67 | 275 | 1.0 | 1.0 | 0.00 | 0.00 | 0.00 | 63 | 1122.6 |
| 20260506061114 | 67 | 296 | 1.0 | 2.0 | 0.00 | 0.00 | 0.00 | 62 | 1122.4 |
| 20260506060612 | 67 | 311 | 1.0 | 1.0 | 0.00 | 0.00 | 0.00 | 62 | 1122.5 |
| 20260506060108 | 67 | 262 | 0.0 | 1.0 | 0.00 | 0.00 | 0.00 | 63 | 1122.7 |
| 20260506051040 | 69 | 283 | 1.0 | 1.0 | 0.00 | 0.00 | 0.00 | 60 | 1122.6 |
| 20260506050538 | 69 | 284 | 1.0 | 2.0 | 0.00 | 0.00 | 0.00 | 59 | 1122.6 |
| 20260506045029 | 69 | 260 | 1.0 | 3.0 | 0.00 | 0.00 | 0.00 | 57 | 1122.4 |
| 20260506044527 | 69 | 272 | 1.0 | 2.0 | 0.00 | 0.00 | 0.00 | 56 | 1122.6 |
| 20260506044023 | 70 | 277 | 1.0 | 2.0 | 0.00 | 0.00 | 0.00 | 57 | 1122.5 |
| 20260506043520 | 70 | 270 | 1.0 | 3.0 | 0.00 | 0.00 | 0.00 | 57 | 1122.6 |
| 20260506043019 | 70 | 279 | 1.0 | 2.0 | 0.00 | 0.00 | 0.00 | 57 | 1122.4 |
| 20260506042518 | 70 | 265 | 0.0 | 1.0 | 0.00 | 0.00 | 0.00 | 57 | 1122.4 |
| 20260506042015 | 70 | 295 | 2.0 | 3.0 | 0.00 | 0.00 | 0.00 | 56 | 1122.2 |
| 20260506041514 | 71 | 261 | 1.0 | 2.0 | 0.00 | 0.00 | 0.00 | 55 | 1122.2 |
| 20260506041010 | 71 | 310 | 2.0 | 2.0 | 0.00 | 0.00 | 0.00 | 54 | 1122.2 |
| 20260506040508 | 71 | 332 | 1.0 | 3.0 | 0.00 | 0.00 | 0.00 | 52 | 1122.2 |
| 20260506040003 | 72 | 283 | 3.0 | 3.0 | 0.00 | 0.00 | 0.00 | 51 | 1122.2 |
| 20260506035501 | 73 | 259 | 1.0 | 5.0 | 0.00 | 0.00 | 0.00 | 49 | 1122.0 |
| 20260506034957 | 74 | 266 | 1.0 | 2.0 | 0.00 | 0.00 | 0.00 | 48 | 1122.0 |
| 20260506034455 | 75 | 264 | 1.0 | 3.0 | 0.00 | 0.00 | 0.00 | 47 | 1121.8 |
| 20260506033951 | 75 | 261 | 1.0 | 1.0 | 0.00 | 0.00 | 0.00 | 45 | 1121.8 |
| 20260506033449 | 75 | 238 | 0.0 | 1.0 | 0.00 | 0.00 | 0.00 | 46 | 1121.6 |
| 20260506032945 | 75 | 247 | 0.0 | 0.0 | 0.00 | 0.00 | 0.00 | 46 | 1121.7 |
| 20260506032443 | 75 | 251 | 0.0 | 1.0 | 0.00 | 0.00 | 0.00 | 46 | 1121.3 |
| 20260506031939 | 75 | 259 | 0.0 | 1.0 | 0.00 | 0.00 | 0.00 | 45 | 1121.6 |
| 20260506031437 | 75 | 256 | 1.0 | 1.0 | 0.00 | 0.00 | 0.00 | 46 | 1121.2 |
| 20260506030934 | 75 | 252 | 0.0 | 0.0 | 0.00 | 0.00 | 0.00 | 45 | 1121.1 |
| 20260506030432 | 75 | 253 | 0.0 | 0.0 | 0.00 | 0.00 | 0.00 | 45 | 1121.1 |
| 20260506025929 | 75 | 252 | 0.0 | 0.0 | 0.00 | 0.00 | 0.00 | 46 | 1121.2 |
| 20260506025426 | 75 | 253 | 0.0 | 0.0 | 0.00 | 0.00 | 0.00 | 46 | 1121.1 |
| 20260506024922 | 76 | 251 | 0.0 | 1.0 | 0.00 | 0.00 | 0.00 | 46 | 1121.1 |
| 20260506024419 | 77 | 234 | 0.0 | 0.0 | 0.00 | 0.00 | 0.00 | 43 | 1120.9 |
| 20260506023915 | 77 | 226 | 1.0 | 1.0 | 0.00 | 0.00 | 0.00 | 43 | 1120.7 |
| 20260506023412 | 77 | 249 | 0.0 | 0.0 | 0.00 | 0.00 | 0.00 | 43 | 1120.4 |
| 20260506022909 | 77 | 261 | 1.0 | 1.0 | 0.00 | 0.00 | 0.00 | 42 | 1120.7 |
| 20260506022407 | 78 | 258 | 1.0 | 3.0 | 0.00 | 0.00 | 0.00 | 42 | 1120.3 |
| 20260506021904 | 78 | 246 | 1.0 | 2.0 | 0.00 | 0.00 | 0.00 | 40 | 1120.4 |
| 20260506021401 | 78 | 246 | 0.0 | 2.0 | 0.00 | 0.00 | 0.00 | 40 | 1120.5 |
| 20260506020858 | 78 | 246 | 0.0 | 1.0 | 0.00 | 0.00 | 0.00 | 40 | 1120.7 |
| 20260506020356 | 78 | 251 | 0.0 | 2.0 | 0.00 | 0.00 | 0.00 | 41 | 1120.2 |
| 20260506015853 | 78 | 243 | 0.0 | 1.0 | 0.00 | 0.00 | 0.00 | 42 | 1120.4 |
| 20260506015351 | 78 | 248 | 1.0 | 1.0 | 0.00 | 0.00 | 0.00 | 42 | 1120.2 |
| 20260506014847 | 78 | 246 | 1.0 | 2.0 | 0.00 | 0.00 | 0.00 | 42 | 1120.2 |
| 20260506014344 | 78 | 239 | 1.0 | 2.0 | 0.00 | 0.00 | 0.00 | 42 | 1120.1 |